Time;durP1;ratioP1;P1;durP2;ratioP2;P2;SDS_P1;SDS_P2;PMS_P1;PMS_P2;Temp;Humidity;BMP_temperature;BMP_pressure;BME280_temperature;BME280_humidity;BME280_pressure;Samples;Min_cycle;Max_cycle;Signal;HPM_P1;HPM_P2
2022/09/25 00:01:07;;;;;;;9.48;2.45;;;;;;;11.28;100.00;101482.69;5030963;28;20029;-84
2022/09/25 00:03:32;;;;;;;7.57;2.25;;;;;;;11.23;100.00;101472.44;5030383;28;20036;-84
2022/09/25 00:06:02;;;;;;;14.57;2.85;;;;;;;11.15;100.00;101480.00;5030286;28;20029;-84
2022/09/25 00:08:28;;;;;;;10.82;2.88;;;;;;;11.11;100.00;101480.28;5030551;28;20381;-84
2022/09/25 00:10:53;;;;;;;13.82;3.35;;;;;;;11.10;100.00;101483.88;5021957;28;20040;-84
2022/09/25 00:13:20;;;;;;;10.05;3.03;;;;;;;11.09;100.00;101492.72;5010272;28;20030;-84
2022/09/25 00:15:51;;;;;;;9.80;2.70;;;;;;;11.04;100.00;101490.41;5011154;28;20506;-83
2022/09/25 00:19:48;;;;;;;9.20;2.70;;;;;;;11.00;100.00;101494.19;5009341;28;20040;-84
2022/09/25 00:21:04;;;;;;;12.68;3.25;;;;;;;11.03;100.00;101488.72;5028342;28;20393;-84
2022/09/25 00:23:30;;;;;;;13.55;3.72;;;;;;;10.99;100.00;101487.22;5011924;28;20034;-83
2022/09/25 00:25:58;;;;;;;9.00;3.08;;;;;;;10.98;100.00;101501.34;5026173;28;20108;-84
2022/09/25 00:28:24;;;;;;;10.05;3.03;;;;;;;10.90;100.00;101487.81;5010449;28;20426;-84
2022/09/25 00:30:49;;;;;;;11.20;2.88;;;;;;;10.88;100.00;101489.72;5010475;28;20245;-84
2022/09/25 00:33:14;;;;;;;9.52;2.88;;;;;;;10.87;100.00;101488.03;5010460;28;20637;-84
2022/09/25 00:35:40;;;;;;;12.25;3.28;;;;;;;10.84;100.00;101489.06;5010684;28;20034;-84
2022/09/25 00:38:05;;;;;;;12.20;2.67;;;;;;;10.88;100.00;101494.97;5009625;28;20026;-84
2022/09/25 00:40:30;;;;;;;10.25;2.95;;;;;;;10.82;100.00;101488.34;5014935;28;20021;-82
2022/09/25 00:42:56;;;;;;;10.30;2.95;;;;;;;10.79;100.00;101490.28;5028341;28;20412;-82
2022/09/25 00:45:21;;;;;;;10.82;2.80;;;;;;;10.75;100.00;101494.06;5009575;28;20026;-82
2022/09/25 00:48:04;;;;;;;17.08;3.25;;;;;;;10.76;100.00;101491.34;5010813;28;20033;-81
2022/09/25 00:50:43;;;;;;;9.25;2.88;;;;;;;10.80;100.00;101481.44;5010946;28;20034;-81
2022/09/25 00:53:13;;;;;;;13.70;3.35;;;;;;;10.78;100.00;101489.44;5009818;28;20064;-81
2022/09/25 00:55:41;;;;;;;8.27;2.85;;;;;;;10.76;100.00;101495.75;5024252;28;20035;-82
2022/09/25 00:58:07;;;;;;;7.22;3.03;;;;;;;10.70;100.00;101496.16;5008123;28;20064;-81
2022/09/25 01:00:34;;;;;;;13.23;3.03;;;;;;;10.72;100.00;101491.63;5014500;28;20050;-82
2022/09/25 01:03:01;;;;;;;8.27;2.55;;;;;;;10.72;100.00;101496.91;4992182;28;20030;-81
2022/09/25 01:05:32;;;;;;;10.93;2.85;;;;;;;10.70;100.00;101496.16;5009562;28;20026;-82
2022/09/25 01:08:00;;;;;;;10.80;3.10;;;;;;;10.65;100.00;101499.91;5008537;28;20045;-84
2022/09/25 01:10:26;;;;;;;11.80;2.67;;;;;;;10.63;100.00;101500.97;5009523;28;20030;-82
2022/09/25 01:12:53;;;;;;;11.50;3.08;;;;;;;10.66;100.00;101493.72;5008848;28;20021;-82
2022/09/25 01:15:27;;;;;;;12.00;2.67;;;;;;;10.62;100.00;101505.38;4990864;28;20036;-81
2022/09/25 01:18:02;;;;;;;10.05;3.20;;;;;;;10.60;100.00;101507.28;5010066;28;20481;-82
2022/09/25 01:20:49;;;;;;;9.40;2.92;;;;;;;10.57;100.00;101502.19;5021578;28;20029;-82
2022/09/25 01:23:42;;;;;;;8.45;2.63;;;;;;;10.56;100.00;101505.78;5028931;28;20030;-82
2022/09/25 01:26:19;;;;;;;9.93;2.78;;;;;;;10.47;100.00;101503.72;5011265;28;20049;-82
2022/09/25 01:29:00;;;;;;;7.65;2.60;;;;;;;10.48;100.00;101505.41;5028730;28;20044;-82
2022/09/25 01:31:47;;;;;;;11.40;2.85;;;;;;;10.46;100.00;101509.94;5011454;28;20021;-82
2022/09/25 01:34:33;;;;;;;12.27;2.72;;;;;;;10.43;100.00;101504.88;5014254;28;20426;-82
2022/09/25 01:37:08;;;;;;;11.35;2.75;;;;;;;10.31;100.00;101505.63;5009588;28;20083;-82
2022/09/25 01:39:55;;;;;;;10.65;2.70;;;;;;;10.30;100.00;101510.03;5012048;28;20029;-82
2022/09/25 01:42:26;;;;;;;15.15;3.08;;;;;;;10.22;100.00;101507.03;5028479;28;20060;-83
2022/09/25 01:45:00;;;;;;;15.15;2.97;;;;;;;10.16;100.00;101511.81;5029527;28;20100;-82
2022/09/25 01:47:27;;;;;;;10.57;2.80;;;;;;;10.13;100.00;101517.25;5011491;28;20026;-82
2022/09/25 01:50:01;;;;;;;8.30;2.50;;;;;;;10.12;100.00;101510.31;5028697;28;20056;-82
2022/09/25 01:52:36;;;;;;;10.77;2.75;;;;;;;10.02;100.00;101510.88;5014782;28;20024;-82
2022/09/25 01:55:14;;;;;;;10.10;2.80;;;;;;;10.02;100.00;101510.88;5008830;28;20481;-82
2022/09/25 01:57:48;;;;;;;10.63;3.05;;;;;;;9.95;100.00;101516.56;5014651;28;20021;-82
2022/09/25 02:00:17;;;;;;;10.38;3.03;;;;;;;9.97;100.00;101514.69;5028301;28;20081;-82
2022/09/25 02:03:16;;;;;;;12.30;3.08;;;;;;;9.97;100.00;101520.78;5028114;28;20041;-82
2022/09/25 02:05:51;;;;;;;15.77;2.75;;;;;;;9.87;100.00;101514.41;5011078;28;20033;-82
2022/09/25 02:08:29;;;;;;;6.72;2.55;;;;;;;9.89;100.00;101512.53;5019424;28;20113;-82
2022/09/25 02:11:03;;;;;;;7.03;2.47;;;;;;;9.77;100.00;101505.41;5012224;28;20087;-82
2022/09/25 02:13:49;;;;;;;10.50;2.80;;;;;;;9.71;100.00;101516.28;5012972;28;20419;-83
2022/09/25 02:16:19;;;;;;;7.28;2.55;;;;;;;9.70;100.00;101509.34;5011639;28;20093;-83
2022/09/25 02:21:54;;;;;;;9.85;2.97;;;;;;;9.68;100.00;101505.94;5032828;28;20181;-85
2022/09/25 02:24:19;;;;;;;9.15;2.50;;;;;;;9.64;100.00;101500.03;5025201;28;20080;-85
2022/09/25 02:26:46;;;;;;;10.75;2.75;;;;;;;9.63;100.00;101500.13;5024242;28;20029;-83
2022/09/25 02:29:11;;;;;;;8.68;2.67;;;;;;;9.56;100.00;101506.66;5032071;28;20023;-85
2022/09/25 02:31:42;;;;;;;7.55;2.53;;;;;;;9.55;100.00;101512.84;5032204;28;20025;-85
2022/09/25 02:34:07;;;;;;;8.35;2.60;;;;;;;9.47;100.00;101504.56;5032080;28;20105;-84
2022/09/25 02:36:36;;;;;;;9.95;2.60;;;;;;;9.51;100.00;101511.34;5032329;28;20505;-82
2022/09/25 02:39:05;;;;;;;7.35;2.20;;;;;;;9.43;100.00;101512.63;5031890;28;20033;-83
2022/09/25 02:41:51;;;;;;;10.27;2.53;;;;;;;9.34;100.00;101513.19;5020730;28;20076;-83
2022/09/25 02:44:19;;;;;;;6.53;2.58;;;;;;;9.30;100.00;101511.66;5011679;28;20474;-83
2022/09/25 02:46:55;;;;;;;7.65;2.65;;;;;;;9.33;100.00;101516.75;5012703;28;20117;-83
2022/09/25 02:49:37;;;;;;;7.03;2.72;;;;;;;9.27;100.00;101511.00;5012388;28;20430;-83
2022/09/25 02:52:12;;;;;;;9.55;2.83;;;;;;;9.22;100.00;101508.66;4994442;28;20389;-83
2022/09/25 02:54:46;;;;;;;8.27;2.72;;;;;;;9.13;100.00;101509.16;4994696;28;20026;-82
2022/09/25 02:57:20;;;;;;;7.03;2.67;;;;;;;9.07;100.00;101510.34;5025635;28;20072;-83
2022/09/25 02:59:52;;;;;;;13.20;3.20;;;;;;;9.02;100.00;101496.66;5013259;28;20067;-83
2022/09/25 03:02:19;;;;;;;13.52;3.28;;;;;;;8.99;100.00;101493.34;5030776;28;20128;-82
2022/09/25 03:04:47;;;;;;;9.25;2.63;;;;;;;8.95;100.00;101491.84;5013870;28;20029;-82
2022/09/25 03:07:12;;;;;;;7.63;2.78;;;;;;;8.93;100.00;101491.09;5030261;28;20026;-83
2022/09/25 03:09:42;;;;;;;5.22;2.63;;;;;;;8.88;100.00;101495.75;5032154;28;20025;-82
2022/09/25 03:12:08;;;;;;;7.28;2.83;;;;;;;8.95;100.00;101497.09;5010613;28;20026;-82
2022/09/25 03:14:33;;;;;;;9.55;2.97;;;;;;;8.85;100.00;101503.81;5011080;28;20175;-83
2022/09/25 03:17:03;;;;;;;10.20;2.72;;;;;;;8.81;100.00;101504.91;5011643;28;20456;-83
2022/09/25 03:19:29;;;;;;;9.38;3.20;;;;;;;8.81;100.00;101494.41;5015256;28;20067;-82
2022/09/25 03:21:54;;;;;;;4.50;2.75;;;;;;;8.76;100.00;101500.72;5031416;28;20021;-82
2022/09/25 03:24:20;;;;;;;10.15;3.92;;;;;;;8.69;100.00;101503.78;5030728;28;20017;-83
2022/09/25 03:26:46;;;;;;;10.48;3.83;;;;;;;8.74;100.00;101507.84;5013453;28;20029;-83
2022/09/25 03:29:13;;;;;;;9.73;3.67;;;;;;;8.74;100.00;101502.59;5025125;28;20022;-83
2022/09/25 03:31:44;;;;;;;12.60;4.85;;;;;;;8.60;100.00;101504.31;5011798;28;20026;-83
2022/09/25 03:34:11;;;;;;;9.10;4.60;;;;;;;8.54;100.00;101510.75;5010673;28;20083;-82
2022/09/25 03:36:37;;;;;;;9.60;5.20;;;;;;;8.55;100.00;101507.19;5012047;28;20025;-83
2022/09/25 03:39:04;;;;;;;11.50;6.30;;;;;;;8.54;100.00;101513.38;5011948;28;20105;-83
2022/09/25 03:41:32;;;;;;;12.82;7.25;;;;;;;8.54;100.00;101505.50;5010856;28;20045;-83
2022/09/25 03:43:58;;;;;;;13.60;7.78;;;;;;;8.50;100.00;101498.72;5011649;28;20117;-83
2022/09/25 03:46:26;;;;;;;13.35;8.05;;;;;;;8.47;100.00;101506.75;5016548;28;20132;-83
2022/09/25 03:48:52;;;;;;;16.13;9.00;;;;;;;8.48;100.00;101500.59;5010978;28;20087;-83
2022/09/25 03:51:19;;;;;;;12.27;8.23;;;;;;;8.47;100.00;101504.16;5011032;28;20030;-83
2022/09/25 03:53:45;;;;;;;17.17;8.15;;;;;;;8.45;100.00;101506.84;5023089;28;20107;-82
2022/09/25 03:56:13;;;;;;;14.48;8.65;;;;;;;8.41;100.00;101505.31;5029985;28;20060;-82
2022/09/25 03:58:38;;;;;;;11.98;8.85;;;;;;;8.40;100.00;101508.00;5031404;28;20025;-82
2022/09/25 04:01:04;;;;;;;11.02;8.70;;;;;;;8.38;100.00;101502.00;5030940;28;20505;-83
2022/09/25 04:03:31;;;;;;;15.23;9.07;;;;;;;8.38;100.00;101504.63;5016639;28;20419;-82
2022/09/25 04:06:00;;;;;;;16.67;9.45;;;;;;;8.35;100.00;101505.63;5010903;28;20033;-82
2022/09/25 04:08:26;;;;;;;12.25;9.23;;;;;;;8.35;100.00;101505.63;5010607;28;20025;-82
2022/09/25 04:10:55;;;;;;;13.98;9.63;;;;;;;8.33;100.00;101506.63;5010278;28;20505;-82
2022/09/25 04:13:25;;;;;;;17.90;9.93;;;;;;;8.33;100.00;101506.63;4991884;28;20038;-82
2022/09/25 04:15:50;;;;;;;15.18;10.07;;;;;;;8.34;100.00;101503.94;4992495;28;20379;-84
2022/09/25 04:18:16;;;;;;;11.88;9.40;;;;;;;8.33;100.00;101502.25;5027527;28;20036;-83
2022/09/25 04:20:41;;;;;;;14.02;10.30;;;;;;;8.20;100.00;101495.94;5029329;28;20036;-83
2022/09/25 04:23:06;;;;;;;13.05;10.48;;;;;;;8.18;100.00;101495.19;5029324;28;20029;-84
2022/09/25 04:25:32;;;;;;;15.25;10.40;;;;;;;8.17;100.00;101502.19;5030789;28;20152;-83
2022/09/25 04:27:57;;;;;;;14.27;10.60;;;;;;;8.16;100.00;101495.28;5030468;28;20025;-83
2022/09/25 04:30:27;;;;;;;11.57;9.57;;;;;;;8.12;100.00;101493.75;5029250;28;20388;-83
2022/09/25 04:35:39;;;;;;;14.40;10.05;;;;;;;8.11;100.00;101501.69;5030775;28;20043;-82
2022/09/25 04:38:04;;;;;;;12.88;9.60;;;;;;;8.06;100.00;101499.31;5012601;28;20172;-83
2022/09/25 04:40:30;;;;;;;18.10;10.63;;;;;;;8.09;100.00;101504.41;5010629;28;20116;-82
2022/09/25 04:43:01;;;;;;;13.88;9.88;;;;;;;8.04;100.00;101511.66;5010346;28;20117;-82
2022/09/25 04:45:28;;;;;;;14.65;10.75;;;;;;;8.02;100.00;101503.03;5009656;28;20029;-82
2022/09/25 04:47:54;;;;;;;14.52;10.98;;;;;;;7.99;100.00;101497.91;5010722;28;20304;-83
2022/09/25 04:50:24;;;;;;;13.98;10.73;;;;;;;8.00;100.00;101504.84;5009997;28;20026;-82
2022/09/25 04:52:50;;;;;;;17.00;10.82;;;;;;;7.93;100.00;101498.25;5015556;28;20110;-82
2022/09/25 04:55:23;;;;;;;13.93;10.38;;;;;;;7.89;100.00;101486.25;5021642;28;20093;-82
2022/09/25 04:57:53;;;;;;;12.60;10.05;;;;;;;7.94;100.00;101494.69;5009545;28;20496;-83
2022/09/25 05:00:19;;;;;;;13.18;10.23;;;;;;;7.87;100.00;101495.94;4991665;28;20025;-83
2022/09/25 05:02:47;;;;;;;15.93;10.07;;;;;;;7.84;100.00;101488.25;5024919;28;20038;-83
2022/09/25 05:05:14;;;;;;;14.55;10.05;;;;;;;7.78;100.00;101491.19;5010656;28;20498;-83
2022/09/25 05:07:39;;;;;;;13.85;9.90;;;;;;;7.81;100.00;101488.41;5029753;28;20108;-82
2022/09/25 05:10:07;;;;;;;16.25;10.18;;;;;;;7.75;100.00;101492.22;5029696;28;20109;-82
2022/09/25 05:12:33;;;;;;;13.52;9.57;;;;;;;7.69;100.00;101494.31;5016493;28;20018;-82
2022/09/25 05:14:58;;;;;;;12.18;9.80;;;;;;;7.71;100.00;101492.44;4992040;28;20075;-82
2022/09/25 05:17:23;;;;;;;14.10;9.90;;;;;;;7.64;100.00;101485.84;5009423;28;20045;-82
2022/09/25 05:19:48;;;;;;;15.38;10.85;;;;;;;7.64;100.00;101491.91;5016841;28;20473;-82
2022/09/25 05:22:14;;;;;;;12.60;9.70;;;;;;;7.62;100.00;101490.31;5028380;28;20025;-82
2022/09/25 05:24:39;;;;;;;17.42;9.73;;;;;;;7.62;100.00;101488.53;5028913;28;20033;-83
2022/09/25 05:27:05;;;;;;;15.02;10.25;;;;;;;7.68;100.00;101482.13;5028997;28;20028;-83
2022/09/25 05:29:31;;;;;;;12.13;9.70;;;;;;;7.61;100.00;101475.53;5014966;28;20034;-83
2022/09/25 05:31:56;;;;;;;12.63;9.50;;;;;;;7.59;100.00;101477.34;5009396;28;20521;-82
2022/09/25 05:34:21;;;;;;;14.93;9.55;;;;;;;7.57;100.00;101485.28;5024054;28;20047;-83
2022/09/25 05:36:47;;;;;;;10.77;9.68;;;;;;;7.52;100.00;101477.66;5029555;28;20116;-82
2022/09/25 05:39:12;;;;;;;12.02;9.70;;;;;;;7.55;100.00;101477.50;5028652;28;20032;-83
2022/09/25 05:41:38;;;;;;;17.33;10.45;;;;;;;7.50;100.00;101474.28;5029070;28;20455;-83
2022/09/25 05:44:08;;;;;;;13.32;10.35;;;;;;;7.49;100.00;101485.69;5025432;28;20037;-82
2022/09/25 05:46:36;;;;;;;12.88;9.75;;;;;;;7.46;100.00;101483.22;5009519;28;20026;-83
2022/09/25 05:49:02;;;;;;;12.75;10.20;;;;;;;7.52;100.00;101489.91;4991628;28;20524;-84
2022/09/25 05:51:28;;;;;;;10.65;9.55;;;;;;;7.50;100.00;101489.13;5009335;28;20389;-83
2022/09/25 05:53:54;;;;;;;12.15;9.90;;;;;;;7.51;100.00;101491.69;5021945;28;20025;-83
2022/09/25 05:56:20;;;;;;;17.33;10.52;;;;;;;7.45;100.00;101497.22;5028308;28;20030;-83
2022/09/25 05:58:47;;;;;;;15.55;10.40;;;;;;;7.45;100.00;101497.22;5029360;28;20028;-83
2022/09/25 06:01:13;;;;;;;11.32;10.15;;;;;;;7.46;100.00;101500.69;5013684;28;20026;-83
2022/09/25 06:03:38;;;;;;;15.18;10.00;;;;;;;7.44;100.00;101506.00;5011073;28;20362;-83
2022/09/25 06:06:04;;;;;;;13.55;10.15;;;;;;;7.47;100.00;101499.78;5025796;28;20041;-83
2022/09/25 06:08:30;;;;;;;14.43;10.52;;;;;;;7.46;100.00;101504.16;5028022;28;20378;-83
2022/09/25 06:10:56;;;;;;;14.15;10.32;;;;;;;7.51;100.00;101506.53;5029204;28;20072;-83
2022/09/25 06:13:24;;;;;;;14.77;10.70;;;;;;;7.59;100.00;101500.91;5028584;28;20021;-83
2022/09/25 06:15:51;;;;;;;14.48;11.65;;;;;;;7.58;100.00;101501.84;5028461;28;20391;-83
2022/09/25 06:18:18;;;;;;;13.77;11.35;;;;;;;7.62;100.00;101506.03;5009092;28;20094;-83
2022/09/25 06:20:43;;;;;;;16.42;11.80;;;;;;;7.71;100.00;101498.53;5002304;28;20033;-83
2022/09/25 06:23:08;;;;;;;17.20;12.27;;;;;;;7.72;100.00;101505.47;4998879;28;20037;-83
2022/09/25 06:25:37;;;;;;;14.10;11.95;;;;;;;7.79;100.00;101500.75;5003578;28;20033;-83
2022/09/25 06:28:04;;;;;;;19.58;11.57;;;;;;;7.80;100.00;101507.69;5006998;28;20026;-83
2022/09/25 06:30:35;;;;;;;22.90;12.18;;;;;;;7.86;100.00;101507.34;4981669;28;20030;-83
2022/09/25 06:33:08;;;;;;;17.27;12.02;;;;;;;7.91;100.00;101507.13;4999845;28;20022;-83
2022/09/25 06:35:35;;;;;;;14.90;11.98;;;;;;;7.92;100.00;101507.03;5000811;28;20080;-83
2022/09/25 06:38:03;;;;;;;18.42;12.85;;;;;;;7.98;100.00;101504.09;4998901;28;20044;-83
2022/09/25 06:40:30;;;;;;;21.65;13.88;;;;;;;8.07;100.00;101505.41;5001543;28;20144;-83
2022/09/25 06:43:00;;;;;;;17.50;13.20;;;;;;;8.09;100.00;101500.94;4998485;28;20152;-83
2022/09/25 06:45:27;;;;;;;20.35;13.52;;;;;;;8.14;100.00;101507.59;4997659;28;20540;-83
2022/09/25 06:47:56;;;;;;;20.92;14.30;;;;;;;8.21;100.00;101502.03;5007514;28;20030;-83
2022/09/25 06:50:28;;;;;;;20.45;14.65;;;;;;;8.30;100.00;101504.16;5008540;28;20036;-83
2022/09/25 06:52:54;;;;;;;19.38;14.82;;;;;;;8.41;100.00;101507.94;5009661;28;20075;-83
2022/09/25 06:55:19;;;;;;;22.75;14.82;;;;;;;8.52;100.00;101512.59;5010947;28;20030;-82
2022/09/25 06:57:45;;;;;;;24.27;15.90;;;;;;;8.63;100.00;101512.84;5011916;28;20041;-84
2022/09/25 07:00:11;;;;;;;25.20;14.75;;;;;;;8.78;100.00;101522.47;5012919;28;20022;-82
2022/09/25 07:05:19;;;;;;;23.17;15.43;;;;;;;9.06;100.00;101513.91;5011516;28;20413;-83
2022/09/25 07:07:46;;;;;;;19.58;15.43;;;;;;;9.23;100.00;101509.50;5012502;28;20022;-83
2022/09/25 07:10:12;;;;;;;20.67;14.75;;;;;;;9.36;100.00;101511.31;5010817;28;20497;-83
2022/09/25 07:12:38;;;;;;;21.75;14.57;;;;;;;9.51;100.00;101519.22;5011481;28;20109;-82
2022/09/25 07:15:04;;;;;;;22.00;14.15;;;;;;;9.64;100.00;101514.97;5012266;28;20026;-83
2022/09/25 07:17:29;;;;;;;18.75;13.02;;;;;;;9.76;100.00;101513.38;5031117;28;20130;-83
2022/09/25 07:19:58;;;;;;;15.20;13.07;;;;;;;9.92;100.00;101517.59;5013614;28;20174;-83
2022/09/25 07:22:23;;;;;;;17.10;12.38;;;;;;;10.04;100.00;101519.50;5031544;28;20171;-83
2022/09/25 07:24:48;;;;;;;18.48;11.60;;;;;;;10.16;100.00;101517.06;5031389;28;20431;-84
2022/09/25 07:27:14;;;;;;;17.08;11.90;;;;;;;10.28;100.00;101526.84;5030893;28;20033;-84
2022/09/25 07:29:39;;;;;;;14.27;10.18;;;;;;;10.44;100.00;101526.75;5013780;28;20489;-84
2022/09/25 07:32:04;;;;;;;17.73;10.48;;;;;;;10.56;100.00;101518.09;5031425;28;20029;-83
2022/09/25 07:34:30;;;;;;;11.80;9.25;;;;;;;10.66;100.00;101522.66;5030229;28;20036;-83
2022/09/25 07:36:58;;;;;;;12.65;9.40;;;;;;;10.81;100.00;101531.41;5030799;28;20079;-81
2022/09/25 07:39:24;;;;;;;13.10;9.57;;;;;;;10.93;100.00;101524.47;5031218;28;20022;-81
2022/09/25 07:41:52;;;;;;;13.15;8.70;;;;;;;11.14;100.00;101527.50;5030854;28;20358;-81
2022/09/25 07:44:17;;;;;;;11.35;8.63;;;;;;;11.15;100.00;101514.22;5030712;28;20029;-81
2022/09/25 07:46:44;;;;;;;12.95;7.97;;;;;;;11.36;100.00;101526.94;5030728;28;20056;-81
2022/09/25 07:49:10;;;;;;;8.88;7.45;;;;;;;11.53;100.00;101522.22;5030735;28;20025;-81
2022/09/25 07:51:35;;;;;;;10.90;7.85;;;;;;;11.64;100.00;101524.16;5031089;28;20036;-81
2022/09/25 07:54:00;;;;;;;11.55;8.77;;;;;;;11.71;100.00;101516.69;5030033;28;20028;-83
2022/09/25 07:56:26;;;;;;;10.05;6.47;;;;;;;11.85;99.62;101514.81;5030649;28;20025;-81
2022/09/25 07:58:52;;;;;;;12.35;6.95;;;;;;;12.02;100.00;101515.47;5030936;28;20025;-81
2022/09/25 08:01:18;;;;;;;12.18;6.13;;;;;;;12.13;100.00;101518.19;5029766;28;20021;-82
2022/09/25 08:03:43;;;;;;;7.43;5.97;;;;;;;12.23;99.35;101511.31;5030926;28;20034;-82
2022/09/25 08:06:12;;;;;;;7.90;5.80;;;;;;;12.34;99.25;101511.38;5013102;28;20029;-82
2022/09/25 08:08:39;;;;;;;8.15;5.50;;;;;;;12.51;96.31;101511.06;5011843;28;20044;-83
2022/09/25 08:11:12;;;;;;;8.88;5.55;;;;;;;12.59;96.15;101514.94;5026199;28;20034;-83
2022/09/25 08:13:38;;;;;;;8.07;5.35;;;;;;;12.71;95.52;101514.03;5028260;28;20124;-83
2022/09/25 08:16:06;;;;;;;12.52;5.82;;;;;;;12.80;96.06;101513.38;5029357;28;20042;-83
2022/09/25 08:18:32;;;;;;;8.40;5.55;;;;;;;12.98;95.31;101512.03;5030225;28;20482;-83
2022/09/25 08:21:02;;;;;;;8.95;5.35;;;;;;;13.12;95.34;101511.88;5030061;28;20099;-83
2022/09/25 08:23:27;;;;;;;8.80;4.75;;;;;;;13.32;93.50;101506.94;5029251;28;20654;-83
2022/09/25 08:25:52;;;;;;;9.10;4.70;;;;;;;13.36;93.91;101509.25;5029404;28;20044;-83
2022/09/25 08:28:18;;;;;;;7.97;4.03;;;;;;;13.53;90.46;101505.31;5029314;28;20426;-82
2022/09/25 08:30:43;;;;;;;10.38;4.10;;;;;;;13.72;90.57;101505.59;5029229;28;20048;-82
2022/09/25 08:33:11;;;;;;;9.48;3.92;;;;;;;13.73;87.96;101504.66;5029571;28;20100;-83
2022/09/25 08:35:37;;;;;;;8.60;3.95;;;;;;;13.85;89.99;101502.84;5030321;28;20028;-83
2022/09/25 08:38:03;;;;;;;8.35;3.80;;;;;;;13.92;89.20;101508.50;5029381;28;20573;-83
2022/09/25 08:40:31;;;;;;;6.32;2.97;;;;;;;14.07;86.85;101517.94;5029868;28;20096;-83
2022/09/25 08:42:57;;;;;;;6.78;2.42;;;;;;;14.17;88.22;101508.28;5028629;28;20028;-83
2022/09/25 08:51:20;;;;;;;8.57;2.35;;;;;;;14.69;81.69;101514.75;5028861;28;20121;-83
2022/09/25 08:53:45;;;;;;;6.78;1.98;;;;;;;14.78;81.00;101514.03;5029710;28;20018;-82
2022/09/25 08:56:13;;;;;;;7.90;1.98;;;;;;;14.93;80.87;101514.59;5028789;28;20234;-83
2022/09/25 08:58:41;;;;;;;10.75;2.35;;;;;;;15.14;81.80;101509.34;5029168;28;20362;-82
2022/09/25 09:01:12;;;;;;;7.28;1.98;;;;;;;15.15;79.22;101508.38;5029760;28;20022;-83
2022/09/25 09:04:22;;;;;;;8.55;2.13;;;;;;;15.36;80.98;101504.78;5029402;28;20091;-83
2022/09/25 09:06:54;;;;;;;5.53;2.10;;;;;;;15.24;79.47;101505.81;4982248;28;20141;-83
2022/09/25 09:09:31;;;;;;;8.18;2.33;;;;;;;15.20;79.00;101504.34;5025204;28;20032;-83
2022/09/25 09:12:29;;;;;;;7.90;2.08;;;;;;;15.19;83.59;101501.84;5028082;28;20520;-83
2022/09/25 09:15:05;;;;;;;7.00;2.33;;;;;;;15.24;81.57;101499.66;5008670;28;20036;-83
2022/09/25 09:17:37;;;;;;;6.30;1.92;;;;;;;15.36;78.38;101493.34;5012147;28;20391;-83
2022/09/25 09:20:17;;;;;;;7.60;2.10;;;;;;;15.43;78.41;101494.50;5008687;28;22042;-83
2022/09/25 09:22:48;;;;;;;7.25;2.03;;;;;;;15.56;78.58;101495.13;5008986;28;20068;-83
2022/09/25 09:25:49;;;;;;;7.57;1.98;;;;;;;15.63;79.83;101491.06;5008420;28;20427;-83
2022/09/25 09:28:44;;;;;;;8.07;2.20;;;;;;;15.91;79.99;101489.50;5013977;28;20033;-83
2022/09/25 09:31:26;;;;;;;9.00;2.05;;;;;;;15.86;77.03;101496.19;4991175;28;20045;-83
2022/09/25 09:34:20;;;;;;;7.53;1.77;;;;;;;15.77;78.67;101497.00;5008991;28;20022;-83
2022/09/25 09:36:50;;;;;;;7.15;1.88;;;;;;;15.47;78.35;101495.06;5009495;28;20481;-83
2022/09/25 09:39:18;;;;;;;6.93;1.63;;;;;;;15.44;77.24;101492.69;5008431;28;20776;-83
2022/09/25 09:42:11;;;;;;;5.85;1.40;;;;;;;15.42;75.95;101492.81;5009795;28;20378;-83
2022/09/25 09:44:57;;;;;;;7.63;1.70;;;;;;;15.35;78.12;101487.19;5009732;28;20030;-84
2022/09/25 09:47:48;;;;;;;8.38;1.67;;;;;;;15.24;78.88;101489.06;4990758;28;20030;-83
2022/09/25 09:50:50;;;;;;;7.85;1.63;;;;;;;15.32;77.27;101489.25;5008839;28;20037;-83
2022/09/25 09:53:23;;;;;;;7.88;1.60;;;;;;;15.54;75.76;101481.16;5008280;28;20283;-83
2022/09/25 09:55:55;;;;;;;5.03;1.20;;;;;;;15.70;74.00;101478.09;4995480;28;20136;-84
2022/09/25 09:58:46;;;;;;;6.90;1.63;;;;;;;15.67;74.64;101475.72;4990716;28;20085;-83
2022/09/25 10:01:14;;;;;;;5.47;1.20;;;;;;;15.53;72.39;101474.19;5008177;28;20156;-83
2022/09/25 10:03:40;;;;;;;5.30;1.15;;;;;;;15.72;72.46;101477.97;5008296;28;20026;-83
2022/09/25 10:06:13;;;;;;;8.85;1.45;;;;;;;15.88;71.52;101478.31;5008953;28;20029;-83
2022/09/25 10:08:40;;;;;;;5.78;1.10;;;;;;;16.08;69.65;101477.44;5007347;28;20165;-83
2022/09/25 10:11:15;;;;;;;4.80;1.25;;;;;;;16.19;69.46;101472.03;5009270;28;20048;-83
2022/09/25 10:13:43;;;;;;;7.70;1.40;;;;;;;16.27;69.30;101466.88;5009297;28;20475;-82
2022/09/25 10:16:10;;;;;;;4.28;1.20;;;;;;;16.42;68.14;101477.16;5014886;28;20045;-82
2022/09/25 10:19:18;;;;;;;5.10;0.90;;;;;;;16.50;72.44;101469.34;5026742;28;20075;-82
2022/09/25 10:21:52;;;;;;;5.35;1.20;;;;;;;16.63;68.50;101466.41;5015572;28;20045;-81
2022/09/25 10:24:53;;;;;;;4.85;1.17;;;;;;;16.53;68.32;101463.75;5027897;28;20022;-81
2022/09/25 10:27:25;;;;;;;5.43;1.35;;;;;;;16.59;65.25;101468.50;5028336;28;20029;-81
2022/09/25 10:30:23;;;;;;;5.82;1.23;;;;;;;16.75;68.90;101458.19;5029477;28;20024;-81
2022/09/25 10:32:55;;;;;;;5.28;1.20;;;;;;;16.87;66.17;101454.47;4988504;28;20041;-82
2022/09/25 10:35:37;;;;;;;8.77;1.60;;;;;;;16.77;64.00;101460.72;5012367;28;20105;-81
2022/09/25 10:38:03;;;;;;;8.95;1.30;;;;;;;16.55;64.79;101456.47;5015256;28;20091;-81
2022/09/25 10:40:36;;;;;;;4.20;1.10;;;;;;;16.38;66.19;101459.78;5012407;28;20024;-81
2022/09/25 10:43:10;;;;;;;8.05;1.63;;;;;;;16.50;66.75;101459.56;5011623;28;20022;-81
2022/09/25 10:45:39;;;;;;;8.77;1.52;;;;;;;16.71;64.36;101456.81;5025726;28;20413;-81
2022/09/25 10:51:20;;;;;;;4.28;1.00;;;;;;;16.71;62.22;101470.09;5031472;28;20040;-81
2022/09/25 10:53:48;;;;;;;5.18;0.95;;;;;;;16.90;62.35;101461.31;5032305;28;20034;-80
2022/09/25 10:56:26;;;;;;;3.72;1.08;;;;;;;16.80;61.76;101455.13;5013602;28;20083;-80
2022/09/25 10:59:00;;;;;;;4.75;1.08;;;;;;;17.02;61.35;101456.69;5014668;28;20017;-80
2022/09/25 11:01:37;;;;;;;3.28;0.70;;;;;;;17.12;61.91;101454.84;5031828;28;20558;-80
2022/09/25 11:04:24;;;;;;;4.72;1.13;;;;;;;17.36;64.18;101447.28;5013353;28;20112;-81
2022/09/25 11:06:52;;;;;;;4.53;1.38;;;;;;;17.18;58.94;101455.13;5014145;28;20448;-80
2022/09/25 11:09:19;;;;;;;3.38;1.08;;;;;;;17.12;61.33;101454.84;5031384;28;20029;-80
2022/09/25 11:11:46;;;;;;;3.65;0.80;;;;;;;17.06;62.29;101455.44;5031953;28;20057;-80
2022/09/25 11:14:31;;;;;;;4.60;1.15;;;;;;;16.90;61.64;101454.19;5031259;28;20021;-81
2022/09/25 11:16:58;;;;;;;3.53;0.80;;;;;;;16.79;62.11;101451.63;5031336;28;20053;-81
2022/09/25 11:19:32;;;;;;;3.95;0.90;;;;;;;16.79;60.84;101448.97;5030609;28;20021;-81
2022/09/25 11:22:03;;;;;;;4.78;0.93;;;;;;;17.02;59.45;101443.41;5031604;28;20500;-81
2022/09/25 11:24:31;;;;;;;4.78;0.95;;;;;;;17.14;58.37;101458.22;5031226;28;20017;-81
2022/09/25 11:27:04;;;;;;;5.28;1.20;;;;;;;17.28;58.18;101451.66;5030743;28;20049;-81
2022/09/25 11:29:32;;;;;;;2.92;0.93;;;;;;;17.47;58.48;101444.44;5013396;28;20241;-81
2022/09/25 11:32:19;;;;;;;4.50;1.10;;;;;;;17.62;59.64;101442.19;5030369;28;20033;-81
2022/09/25 11:35:02;;;;;;;3.78;1.00;;;;;;;17.92;60.77;101442.94;5031403;28;20024;-81
2022/09/25 11:38:00;;;;;;;3.45;1.02;;;;;;;17.97;58.43;101432.69;5030823;28;20051;-80
2022/09/25 11:43:45;;;;;;;7.07;1.17;;;;;;;17.97;57.08;101440.69;5030621;28;20036;-81
2022/09/25 11:46:49;;;;;;;6.90;1.52;;;;;;;18.21;59.25;101432.16;4998661;28;20037;-81
2022/09/25 11:49:23;;;;;;;4.93;0.80;;;;;;;18.37;55.10;101432.34;5030667;28;20366;-81
2022/09/25 11:51:57;;;;;;;5.22;1.00;;;;;;;18.48;57.30;101424.16;5031062;28;20029;-80
2022/09/25 11:54:51;;;;;;;4.35;0.80;;;;;;;18.67;55.09;101413.38;5028180;28;20164;-81